createdAt,value
2019-03-15T00:01:40.210Z,7.70
2019-03-15T00:04:08.688Z,7.60
2019-03-15T00:06:37.122Z,7.60
2019-03-15T00:09:07.773Z,7.60
2019-03-15T00:11:36.210Z,7.60
2019-03-15T00:14:04.953Z,7.60
2019-03-15T00:16:33.396Z,7.60
2019-03-15T00:19:01.878Z,7.60
2019-03-15T00:21:30.323Z,7.60
2019-03-15T00:23:58.735Z,7.50
2019-03-15T00:26:27.242Z,7.50
2019-03-15T00:28:55.745Z,7.40
2019-03-15T00:31:24.357Z,7.40
2019-03-15T00:33:52.764Z,7.50
2019-03-15T00:36:21.206Z,7.50
2019-03-15T00:38:49.629Z,7.40
2019-03-15T00:41:18.076Z,7.40
2019-03-15T00:43:49.238Z,7.50
2019-03-15T00:46:16.680Z,7.50
2019-03-15T00:48:45.082Z,7.40
2019-03-15T00:51:13.582Z,7.40
2019-03-15T00:53:42.057Z,7.40
2019-03-15T00:56:11.211Z,7.40
2019-03-15T00:58:39.982Z,7.40
2019-03-15T01:01:08.635Z,7.50
2019-03-15T01:03:37.076Z,7.50
2019-03-15T01:06:05.552Z,7.50
2019-03-15T01:08:33.987Z,7.50
2019-03-15T01:11:02.412Z,7.50
2019-03-15T01:13:30.837Z,7.60
2019-03-15T01:15:59.250Z,7.60
2019-03-15T01:18:27.713Z,7.60
2019-03-15T01:20:56.136Z,7.60
2019-03-15T01:23:24.556Z,7.70
2019-03-15T01:25:52.976Z,7.70
2019-03-15T01:28:21.423Z,7.70
2019-03-15T01:30:49.852Z,7.70
2019-03-15T01:33:18.298Z,7.70
2019-03-15T01:35:46.784Z,7.70
2019-03-15T01:38:15.227Z,7.70
2019-03-15T01:40:43.657Z,7.70
2019-03-15T01:43:12.068Z,7.80
2019-03-15T01:45:40.506Z,7.80
2019-03-15T01:48:08.939Z,7.90
2019-03-15T01:50:37.431Z,7.90
2019-03-15T01:53:05.851Z,7.90
2019-03-15T01:55:34.287Z,7.90
2019-03-15T01:58:02.703Z,8.00
2019-03-15T02:00:31.213Z,8.00
2019-03-15T02:03:02.336Z,7.90
2019-03-15T02:05:29.897Z,7.90
2019-03-15T02:07:58.332Z,8.00
2019-03-15T02:10:26.779Z,8.00
2019-03-15T02:12:55.190Z,8.10
2019-03-15T02:15:23.806Z,8.10
2019-03-15T02:17:52.672Z,8.10
2019-03-15T02:20:22.319Z,8.20
2019-03-15T02:22:50.861Z,8.20
2019-03-15T02:25:19.306Z,8.20
2019-03-15T02:27:47.741Z,8.20
2019-03-15T02:30:16.245Z,8.20
2019-03-15T02:32:44.686Z,8.20
2019-03-15T02:35:13.100Z,8.20
2019-03-15T02:37:41.526Z,8.20
2019-03-15T02:40:10.100Z,8.10
2019-03-15T02:42:38.638Z,8.10
2019-03-15T02:45:07.838Z,8.00
2019-03-15T02:47:36.274Z,7.90
2019-03-15T02:50:06.548Z,7.90
2019-03-15T02:52:34.990Z,7.90
2019-03-15T02:55:04.138Z,7.80
2019-03-15T02:57:32.580Z,7.80
2019-03-15T03:00:01.064Z,7.80
2019-03-15T03:02:29.538Z,7.80
2019-03-15T03:04:57.949Z,7.70
2019-03-15T03:07:26.395Z,7.60
2019-03-15T03:09:54.798Z,7.60
2019-03-15T03:12:23.225Z,7.50
2019-03-15T03:14:51.643Z,7.50
2019-03-15T03:17:20.090Z,7.40
2019-03-15T03:19:48.507Z,7.40
2019-03-15T03:22:17.041Z,7.40
2019-03-15T03:24:45.463Z,7.40
2019-03-15T03:27:13.959Z,7.40
2019-03-15T03:29:42.361Z,7.40
2019-03-15T03:32:11.173Z,7.30
2019-03-15T03:34:41.223Z,7.30
2019-03-15T03:37:09.741Z,7.30
2019-03-15T03:39:38.154Z,7.30
2019-03-15T03:42:06.583Z,7.20
2019-03-15T03:44:35.138Z,7.30
2019-03-15T03:47:03.624Z,7.30
2019-03-15T03:49:32.075Z,7.40
2019-03-15T03:52:00.526Z,7.40
2019-03-15T03:54:29.034Z,7.40
2019-03-15T03:56:57.514Z,7.50
2019-03-15T03:59:26.011Z,7.50
2019-03-15T04:01:54.569Z,7.60
2019-03-15T04:04:23.016Z,7.60
2019-03-15T04:06:51.426Z,7.70
2019-03-15T04:09:19.862Z,7.70
2019-03-15T04:11:55.402Z,7.80
2019-03-15T04:14:18.418Z,7.80
2019-03-15T04:16:46.840Z,7.80
2019-03-15T04:19:15.350Z,7.90
2019-03-15T04:21:43.765Z,7.90
2019-03-15T04:24:12.229Z,8.00
2019-03-15T04:26:40.703Z,8.00
2019-03-15T04:29:09.202Z,8.00
2019-03-15T04:31:37.615Z,8.10
2019-03-15T04:34:06.132Z,8.10
2019-03-15T04:36:34.556Z,8.10
2019-03-15T04:39:03.862Z,8.10
2019-03-15T04:41:32.283Z,8.10
2019-03-15T04:44:00.866Z,8.20
2019-03-15T04:46:29.282Z,8.20
2019-03-15T04:48:57.717Z,8.20
2019-03-15T04:51:26.142Z,8.20
2019-03-15T04:53:54.569Z,8.20
2019-03-15T04:56:23.173Z,8.20
2019-03-15T04:58:51.595Z,8.20
2019-03-15T05:01:20.022Z,8.20
2019-03-15T05:03:48.441Z,8.30
2019-03-15T05:06:16.879Z,8.30
2019-03-15T05:08:45.288Z,8.30
2019-03-15T05:11:13.723Z,8.30
2019-03-15T05:13:42.117Z,8.30
2019-03-15T05:16:10.559Z,8.20
2019-03-15T05:18:38.968Z,8.10
2019-03-15T05:21:07.581Z,8.10
2019-03-15T05:23:36.026Z,8.10
2019-03-15T05:26:04.608Z,8.00
2019-03-15T05:28:33.173Z,8.00
2019-03-15T05:31:01.600Z,7.90
2019-03-15T05:33:30.008Z,7.80
2019-03-15T05:35:58.458Z,7.80
2019-03-15T05:38:26.882Z,7.70
2019-03-15T05:40:55.308Z,7.70
2019-03-15T05:43:23.740Z,7.70
2019-03-15T05:45:52.300Z,7.60
2019-03-15T05:48:20.786Z,7.60
2019-03-15T05:50:49.192Z,7.50
2019-03-15T05:53:17.647Z,7.60
2019-03-15T05:55:46.073Z,7.60
2019-03-15T05:58:14.489Z,7.60
2019-03-15T06:00:42.898Z,7.50
2019-03-15T06:03:12.593Z,7.50
2019-03-15T06:05:41.326Z,7.50
2019-03-15T06:08:09.757Z,7.50
2019-03-15T06:10:38.176Z,7.50
2019-03-15T06:13:06.603Z,7.50
2019-03-15T06:15:35.013Z,7.40
2019-03-15T06:18:06.556Z,7.30
2019-03-15T06:20:33.622Z,7.30
2019-03-15T06:23:02.064Z,7.30
2019-03-15T06:25:30.559Z,7.40
2019-03-15T06:27:59.083Z,7.30
2019-03-15T06:30:27.486Z,7.30
2019-03-15T06:32:56.256Z,7.40
2019-03-15T06:35:24.829Z,7.40
2019-03-15T06:37:53.269Z,7.40
2019-03-15T06:40:21.679Z,7.40
2019-03-15T06:42:50.094Z,7.40
2019-03-15T06:45:18.532Z,7.40
2019-03-15T06:47:47.094Z,7.50
2019-03-15T06:50:15.618Z,7.50
2019-03-15T06:52:44.043Z,7.50
2019-03-15T06:55:12.616Z,7.50
2019-03-15T06:57:41.034Z,7.50
2019-03-15T07:00:12.281Z,7.50
2019-03-15T07:02:40.771Z,7.60
2019-03-15T07:05:12.137Z,7.60
2019-03-15T07:07:39.841Z,7.70
2019-03-15T07:10:11.785Z,7.70
2019-03-15T07:12:40.768Z,7.80
2019-03-15T07:15:11.922Z,7.70
2019-03-15T07:17:40.394Z,7.60
2019-03-15T07:20:11.704Z,7.60
2019-03-15T07:22:40.116Z,7.70
2019-03-15T07:25:10.094Z,7.70
2019-03-15T07:27:42.009Z,7.70
2019-03-15T07:30:13.258Z,7.80
2019-03-15T07:32:41.675Z,7.70
2019-03-15T07:35:10.197Z,7.80
2019-03-15T07:37:38.669Z,7.80
2019-03-15T07:40:09.605Z,7.80
2019-03-15T07:42:38.141Z,7.80
2019-03-15T07:45:08.745Z,7.80
2019-03-15T07:47:37.198Z,7.80
2019-03-15T07:50:08.964Z,7.80
2019-03-15T07:52:37.395Z,7.80
2019-03-15T07:55:08.050Z,7.90
2019-03-15T07:57:36.610Z,7.90
2019-03-15T08:00:08.111Z,8.00
2019-03-15T08:02:36.571Z,8.10
2019-03-15T08:05:05.734Z,8.20
2019-03-15T08:07:36.537Z,8.20
2019-03-15T08:10:06.657Z,8.20
2019-03-15T08:12:38.482Z,8.20
2019-03-15T08:15:08.026Z,8.20
2019-03-15T08:17:36.801Z,8.20
2019-03-15T08:20:12.594Z,8.20
2019-03-15T08:22:41.041Z,8.10
2019-03-15T08:25:11.008Z,8.20
2019-03-15T08:27:39.517Z,8.30
2019-03-15T08:30:10.939Z,8.30
2019-03-15T08:32:39.824Z,8.20
2019-03-15T08:35:10.509Z,8.30
2019-03-15T08:37:38.967Z,8.30
2019-03-15T08:40:11.982Z,8.20
2019-03-15T08:42:40.462Z,8.30
2019-03-15T08:45:12.247Z,8.30
2019-03-15T08:47:40.781Z,8.40
2019-03-15T08:50:15.043Z,8.60
2019-03-15T08:52:42.406Z,8.70
2019-03-15T08:55:12.400Z,8.60
2019-03-15T08:57:40.833Z,8.70
2019-03-15T09:00:17.514Z,8.70
2019-03-15T09:02:46.245Z,8.80
2019-03-15T09:05:15.737Z,8.90
2019-03-15T09:07:44.261Z,9.00
2019-03-15T09:10:23.157Z,9.20
2019-03-15T09:12:48.870Z,9.40
2019-03-15T09:15:17.327Z,9.50
2019-03-15T09:17:45.887Z,9.60
2019-03-15T09:20:15.438Z,9.70
2019-03-15T09:22:43.869Z,9.90
2019-03-15T09:25:19.716Z,9.90
2019-03-15T09:27:46.642Z,10.00
2019-03-15T09:30:23.574Z,10.10
2019-03-15T09:32:48.641Z,10.10
2019-03-15T09:35:17.096Z,10.20
2019-03-15T09:37:47.244Z,10.20
2019-03-15T09:40:16.274Z,10.30
2019-03-15T09:42:45.030Z,10.30
2019-03-15T09:45:17.621Z,10.30
2019-03-15T09:47:46.191Z,10.40
2019-03-15T09:50:26.635Z,10.40
2019-03-15T09:52:46.174Z,10.50
2019-03-15T09:55:15.141Z,10.50
2019-03-15T09:57:43.764Z,10.60
2019-03-15T10:00:19.416Z,10.60
2019-03-15T10:02:47.862Z,10.70
2019-03-15T10:05:16.357Z,10.70
2019-03-15T10:07:44.813Z,10.80
2019-03-15T10:10:18.919Z,10.90
2019-03-15T10:12:47.501Z,10.90
2019-03-15T10:15:17.058Z,10.90
2019-03-15T10:17:45.632Z,10.90
2019-03-15T10:20:14.807Z,10.90
2019-03-15T10:22:43.246Z,10.90
2019-03-15T10:25:15.265Z,10.90
2019-03-15T10:27:43.846Z,10.90
2019-03-15T10:30:14.677Z,10.90
2019-03-15T10:32:43.159Z,10.90
2019-03-15T10:35:11.650Z,10.90
2019-03-15T10:37:40.093Z,11.00
2019-03-15T10:40:20.186Z,10.90
2019-03-15T10:42:48.701Z,10.90
2019-03-15T10:45:17.275Z,10.90
2019-03-15T10:47:45.777Z,10.90
2019-03-15T10:50:18.467Z,11.00
2019-03-15T10:52:46.981Z,11.00
2019-03-15T10:55:15.808Z,11.10
2019-03-15T10:57:44.260Z,11.10
2019-03-15T11:00:19.747Z,11.10
2019-03-15T11:02:48.244Z,11.10
2019-03-15T11:05:16.680Z,11.20
2019-03-15T11:07:45.229Z,11.10
2019-03-15T11:10:14.299Z,11.10
2019-03-15T11:12:42.781Z,11.10
2019-03-15T11:15:15.466Z,11.10
2019-03-15T11:17:43.887Z,11.10
2019-03-15T11:20:13.068Z,11.10
2019-03-15T11:22:41.486Z,11.10
2019-03-15T11:25:10.987Z,11.10
2019-03-15T11:27:39.390Z,11.20
2019-03-15T11:30:14.603Z,11.20
2019-03-15T11:32:43.034Z,11.20
2019-03-15T11:35:12.105Z,11.20
2019-03-15T11:37:40.538Z,11.20
2019-03-15T11:40:13.981Z,11.20
2019-03-15T11:42:42.042Z,11.20
2019-03-15T11:45:11.527Z,11.20
2019-03-15T11:48:00.723Z,11.20
2019-03-15T11:50:13.227Z,11.20
2019-03-15T11:52:41.665Z,11.20
2019-03-15T11:55:10.650Z,11.20
2019-03-15T11:57:39.069Z,11.10
2019-03-15T12:00:12.943Z,11.20
2019-03-15T12:02:41.380Z,11.10
2019-03-15T12:05:10.027Z,11.10
2019-03-15T12:07:38.482Z,11.10
2019-03-15T12:10:09.728Z,11.20
2019-03-15T12:12:38.173Z,11.20
2019-03-15T12:15:09.799Z,11.30
2019-03-15T12:17:38.237Z,11.30
2019-03-15T12:20:09.136Z,11.30
2019-03-15T12:22:37.689Z,11.30
2019-03-15T12:25:07.359Z,11.30
2019-03-15T12:27:35.827Z,11.30
2019-03-15T12:30:07.549Z,11.40
2019-03-15T12:32:36.020Z,11.40
2019-03-15T12:35:06.249Z,11.50
2019-03-15T12:37:34.699Z,11.50
2019-03-15T12:40:04.352Z,11.50
2019-03-15T12:42:32.798Z,11.40
2019-03-15T12:45:01.299Z,11.50
2019-03-15T12:47:29.770Z,11.50
2019-03-15T12:49:58.185Z,11.50
2019-03-15T12:52:26.635Z,11.50
2019-03-15T12:54:55.072Z,11.40
2019-03-15T12:57:23.524Z,11.40
2019-03-15T12:59:52.006Z,11.40
2019-03-15T13:02:20.600Z,11.40
2019-03-15T13:04:51.914Z,11.40
2019-03-15T13:07:19.290Z,11.40
2019-03-15T13:09:47.787Z,11.40
2019-03-15T13:12:16.287Z,11.40
2019-03-15T13:14:44.717Z,11.40
2019-03-15T13:17:13.150Z,11.40
2019-03-15T13:19:54.179Z,11.40
2019-03-15T13:22:11.845Z,11.40
2019-03-15T13:24:40.295Z,11.30
2019-03-15T13:27:08.730Z,11.40
2019-03-15T13:29:37.214Z,11.30
2019-03-15T13:32:05.635Z,11.30
2019-03-15T13:34:34.118Z,11.30
2019-03-15T13:37:02.560Z,11.30
2019-03-15T13:39:31.005Z,11.40
2019-03-15T13:41:59.440Z,11.40
2019-03-15T13:44:27.871Z,11.50
2019-03-15T13:46:56.294Z,11.40
2019-03-15T13:49:25.041Z,11.40
2019-03-15T13:51:53.469Z,11.40
2019-03-15T13:54:21.985Z,11.40
2019-03-15T13:56:50.428Z,11.40
2019-03-15T13:59:18.885Z,11.40
2019-03-15T14:01:47.296Z,11.40
2019-03-15T14:04:15.765Z,11.40
2019-03-15T14:06:44.189Z,11.40
2019-03-15T14:09:12.614Z,11.30
2019-03-15T14:11:41.053Z,11.30
2019-03-15T14:14:09.473Z,11.30
2019-03-15T14:16:37.992Z,11.30
2019-03-15T14:19:06.475Z,11.30
2019-03-15T14:21:34.925Z,11.40
2019-03-15T14:24:03.505Z,11.40
2019-03-15T14:26:31.973Z,11.40
2019-03-15T14:29:00.434Z,11.40
2019-03-15T14:31:29.229Z,11.40
2019-03-15T14:33:57.648Z,11.40
2019-03-15T14:36:26.107Z,11.40
2019-03-15T14:38:54.567Z,11.40
2019-03-15T14:41:23.068Z,11.40
2019-03-15T14:43:51.479Z,11.40
2019-03-15T14:46:19.920Z,11.40
2019-03-15T14:48:48.350Z,11.40
2019-03-15T14:51:16.866Z,11.40
2019-03-15T14:53:45.368Z,11.40
2019-03-15T14:56:13.832Z,11.40
2019-03-15T14:58:42.347Z,11.40
2019-03-15T15:01:10.775Z,11.40
2019-03-15T15:03:39.293Z,11.40
2019-03-15T15:06:07.784Z,11.40
2019-03-15T15:08:36.227Z,11.40
2019-03-15T15:11:04.795Z,11.40
2019-03-15T15:13:33.209Z,11.40
2019-03-15T15:16:01.624Z,11.40
2019-03-15T15:18:30.151Z,11.40
2019-03-15T15:20:59.878Z,11.40
2019-03-15T15:23:28.506Z,11.40
2019-03-15T15:25:56.959Z,11.40
2019-03-15T15:28:25.410Z,11.40
2019-03-15T15:30:53.839Z,11.40
2019-03-15T15:33:22.293Z,11.40
2019-03-15T15:35:50.720Z,11.30
2019-03-15T15:38:19.155Z,11.30
2019-03-15T15:40:47.612Z,11.40
2019-03-15T15:43:16.007Z,11.40
2019-03-15T15:45:44.458Z,11.40
2019-03-15T15:48:12.867Z,11.40
2019-03-15T15:50:41.385Z,11.30
2019-03-15T15:53:11.056Z,11.30
2019-03-15T15:55:39.852Z,11.30
2019-03-15T15:58:17.827Z,11.30
2019-03-15T16:00:38.421Z,11.20
2019-03-15T16:03:06.891Z,11.20
2019-03-15T16:05:35.350Z,11.20
2019-03-15T16:08:03.752Z,11.20
2019-03-15T16:10:32.255Z,11.10
2019-03-15T16:13:02.792Z,11.20
2019-03-15T16:15:30.838Z,11.20
2019-03-15T16:17:59.237Z,11.20
2019-03-15T16:20:27.855Z,11.20
2019-03-15T16:22:56.232Z,11.20
2019-03-15T16:25:24.760Z,11.20
2019-03-15T16:27:53.160Z,11.20
2019-03-15T16:30:21.618Z,11.20
2019-03-15T16:32:50.015Z,11.20
2019-03-15T16:35:18.558Z,11.20
2019-03-15T16:37:46.980Z,11.20
2019-03-15T16:40:16.099Z,11.20
2019-03-15T16:42:44.590Z,11.20
2019-03-15T16:45:24.734Z,11.20
2019-03-15T16:47:53.128Z,11.20
2019-03-15T16:50:21.600Z,11.20
2019-03-15T16:52:50.079Z,11.20
2019-03-15T16:55:18.566Z,11.10
2019-03-15T16:57:46.964Z,11.10
2019-03-15T17:00:16.378Z,11.10
2019-03-15T17:02:44.852Z,11.10
2019-03-15T17:05:14.149Z,11.10
2019-03-15T17:07:42.959Z,11.10
2019-03-15T17:10:13.834Z,11.10
2019-03-15T17:12:42.258Z,11.10
2019-03-15T17:15:13.657Z,11.10
2019-03-15T17:17:42.146Z,11.10
2019-03-15T17:20:11.649Z,11.10
2019-03-15T17:22:40.191Z,11.00
2019-03-15T17:25:10.534Z,11.00
2019-03-15T17:27:39.141Z,11.10
2019-03-15T17:30:15.620Z,11.10
2019-03-15T17:32:44.445Z,11.10
2019-03-15T17:35:14.949Z,11.10
2019-03-15T17:37:43.406Z,11.10
2019-03-15T17:40:16.195Z,11.10
2019-03-15T17:42:44.569Z,11.10
2019-03-15T17:45:13.270Z,11.20
2019-03-15T17:47:41.725Z,11.20
2019-03-15T17:50:15.078Z,11.20
2019-03-15T17:52:43.578Z,11.20
2019-03-15T17:55:12.285Z,11.20
2019-03-15T17:57:40.856Z,11.20
2019-03-15T18:00:25.908Z,11.20
2019-03-15T18:02:54.369Z,11.20
2019-03-15T18:05:22.777Z,11.20
2019-03-15T18:07:51.228Z,11.20
2019-03-15T18:10:19.634Z,11.20
2019-03-15T18:12:48.092Z,11.20
2019-03-15T18:15:16.636Z,11.20
2019-03-15T18:17:45.082Z,11.20
2019-03-15T18:20:13.639Z,11.20
2019-03-15T18:22:42.041Z,11.20
2019-03-15T18:25:11.242Z,11.20
2019-03-15T18:27:39.710Z,11.30
2019-03-15T18:30:15.630Z,11.20
2019-03-15T18:32:44.038Z,11.20
2019-03-15T18:35:12.826Z,11.20
2019-03-15T18:37:41.241Z,11.30
2019-03-15T18:40:14.042Z,11.30
2019-03-15T18:42:42.668Z,11.30
2019-03-15T18:45:13.547Z,11.20
2019-03-15T18:47:42.047Z,11.20
2019-03-15T18:50:19.138Z,11.30
2019-03-15T18:52:47.554Z,11.30
2019-03-15T18:55:16.015Z,11.30
2019-03-15T18:57:44.473Z,11.30
2019-03-15T19:00:15.444Z,11.30
2019-03-15T19:02:43.879Z,11.30
2019-03-15T19:05:12.432Z,11.30
2019-03-15T19:07:40.836Z,11.30
2019-03-15T19:10:11.037Z,11.30
2019-03-15T19:12:42.517Z,11.30
2019-03-15T19:15:16.174Z,11.30
2019-03-15T19:17:44.546Z,11.30
2019-03-15T19:20:14.768Z,11.30
2019-03-15T19:22:43.232Z,11.30
2019-03-15T19:25:12.325Z,11.40
2019-03-15T19:27:40.844Z,11.30
2019-03-15T19:30:12.383Z,11.40
2019-03-15T19:32:40.843Z,11.30
2019-03-15T19:35:09.747Z,11.20
2019-03-15T19:37:38.272Z,11.20
2019-03-15T19:40:16.646Z,11.30
2019-03-15T19:42:45.880Z,11.20
2019-03-15T19:45:17.647Z,11.30
2019-03-15T19:47:46.180Z,11.30
2019-03-15T19:50:21.101Z,11.40
2019-03-15T19:52:49.578Z,11.30
2019-03-15T19:55:18.051Z,11.40
2019-03-15T19:57:46.652Z,11.30
2019-03-15T20:00:16.886Z,11.30
2019-03-15T20:02:45.428Z,11.20
2019-03-15T20:05:13.967Z,11.30
2019-03-15T20:07:42.501Z,11.30
2019-03-15T20:10:16.190Z,11.30
2019-03-15T20:12:43.068Z,11.30
2019-03-15T20:15:13.150Z,11.30
2019-03-15T20:17:41.551Z,11.40
2019-03-15T20:20:20.336Z,11.40
2019-03-15T20:22:48.810Z,11.40
2019-03-15T20:25:18.046Z,11.40
2019-03-15T20:27:46.613Z,11.40
2019-03-15T20:30:23.159Z,11.40
2019-03-15T20:32:50.492Z,11.50
2019-03-15T20:35:18.927Z,11.40
2019-03-15T20:37:47.392Z,11.40
2019-03-15T20:40:15.923Z,11.50
2019-03-15T20:42:44.398Z,11.40
2019-03-15T20:45:27.009Z,11.40
2019-03-15T20:47:55.410Z,11.50
2019-03-15T20:50:23.977Z,11.50
2019-03-15T20:52:52.372Z,11.50
2019-03-15T20:55:20.830Z,11.60
2019-03-15T20:57:49.250Z,11.50
2019-03-15T21:00:34.376Z,11.50
2019-03-15T21:02:51.525Z,11.60
2019-03-15T21:05:22.933Z,11.60
2019-03-15T21:07:51.417Z,11.60
2019-03-15T21:10:20.046Z,11.60
2019-03-15T21:12:48.482Z,11.60
2019-03-15T21:15:17.089Z,11.60
2019-03-15T21:17:45.579Z,11.60
2019-03-15T21:20:17.921Z,11.60
2019-03-15T21:22:46.395Z,11.60
2019-03-15T21:25:14.953Z,11.60
2019-03-15T21:27:53.707Z,11.50
2019-03-15T21:30:18.861Z,11.60
2019-03-15T21:32:47.279Z,11.50
2019-03-15T21:35:15.682Z,11.50
2019-03-15T21:37:44.207Z,11.40
2019-03-15T21:40:14.024Z,11.30
2019-03-15T21:42:42.466Z,11.20
2019-03-15T21:45:11.826Z,11.20
2019-03-15T21:47:40.292Z,11.20
2019-03-15T21:50:13.903Z,11.10
2019-03-15T21:52:42.503Z,11.20
2019-03-15T21:55:10.987Z,11.20
2019-03-15T21:57:39.439Z,11.10
2019-03-15T22:00:13.584Z,11.10
2019-03-15T22:02:42.047Z,11.10
2019-03-15T22:05:10.531Z,11.10
2019-03-15T22:07:39.048Z,11.10
2019-03-15T22:10:10.094Z,11.00
2019-03-15T22:12:38.629Z,11.00
2019-03-15T22:15:09.611Z,11.00
2019-03-15T22:17:38.175Z,11.00
2019-03-15T22:20:09.705Z,11.00
2019-03-15T22:22:38.181Z,11.00
2019-03-15T22:25:07.877Z,11.00
2019-03-15T22:27:36.371Z,11.00
2019-03-15T22:30:07.279Z,11.00
2019-03-15T22:32:35.693Z,10.90
2019-03-15T22:35:04.409Z,11.00
2019-03-15T22:37:32.821Z,10.90
2019-03-15T22:40:01.268Z,10.90
2019-03-15T22:42:30.071Z,10.90
2019-03-15T22:44:58.537Z,10.90
2019-03-15T22:47:26.948Z,10.90
2019-03-15T22:49:55.399Z,10.90
2019-03-15T22:52:23.803Z,10.90
2019-03-15T22:54:52.210Z,11.00
2019-03-15T22:57:20.677Z,10.90
2019-03-15T22:59:49.082Z,11.00
2019-03-15T23:02:17.559Z,11.00
2019-03-15T23:04:46.026Z,11.00
2019-03-15T23:07:14.430Z,11.00
2019-03-15T23:09:42.901Z,11.00
2019-03-15T23:12:11.378Z,11.10
2019-03-15T23:14:39.786Z,11.10
2019-03-15T23:17:08.238Z,11.10
2019-03-15T23:19:36.646Z,11.00
2019-03-15T23:22:05.159Z,11.00
2019-03-15T23:24:33.622Z,10.90
2019-03-15T23:27:02.076Z,10.90
2019-03-15T23:29:30.478Z,10.90
2019-03-15T23:31:59.014Z,10.90
2019-03-15T23:34:27.417Z,10.90
2019-03-15T23:36:55.886Z,10.80
2019-03-15T23:39:24.292Z,10.80
2019-03-15T23:41:55.191Z,10.90
2019-03-15T23:44:22.894Z,10.80
2019-03-15T23:46:51.347Z,10.80
2019-03-15T23:49:19.772Z,10.90
2019-03-15T23:51:48.169Z,10.90
2019-03-15T23:54:16.635Z,10.80
2019-03-15T23:56:45.103Z,10.90
2019-03-15T23:59:13.525Z,10.90
